createdAt,value
2019-05-02T00:01:01.264Z,89.00
2019-05-02T00:03:35.982Z,89.44
2019-05-02T00:06:09.322Z,91.10
2019-05-02T00:08:40.857Z,91.33
2019-05-02T00:11:13.367Z,90.48
2019-05-02T00:13:45.360Z,90.61
2019-05-02T00:16:17.007Z,89.97
2019-05-02T00:18:48.285Z,89.64
2019-05-02T00:21:20.328Z,89.39
2019-05-02T00:23:51.625Z,88.46
2019-05-02T00:26:24.538Z,88.72
2019-05-02T00:28:56.356Z,89.43
2019-05-02T00:31:28.053Z,89.76
2019-05-02T00:33:59.415Z,89.90
2019-05-02T00:36:30.772Z,90.19
2019-05-02T00:39:02.566Z,90.25
2019-05-02T00:41:38.447Z,90.05
2019-05-02T00:44:11.074Z,89.83
2019-05-02T00:46:42.085Z,90.57
2019-05-02T00:49:13.580Z,89.63
2019-05-02T00:51:45.016Z,89.75
2019-05-02T00:54:19.145Z,90.70
2019-05-02T00:56:49.579Z,91.12
2019-05-02T00:59:20.878Z,91.88
2019-05-02T01:02:00.087Z,92.74
2019-05-02T01:04:36.854Z,91.99
2019-05-02T01:07:09.224Z,91.52
2019-05-02T01:09:42.118Z,91.82
2019-05-02T01:12:25.803Z,92.16
2019-05-02T01:14:46.583Z,92.14
2019-05-02T01:17:18.249Z,92.35
2019-05-02T01:19:51.504Z,91.13
2019-05-02T01:22:23.042Z,90.94
2019-05-02T01:24:54.739Z,91.19
2019-05-02T01:27:41.144Z,90.63
2019-05-02T01:30:30.260Z,91.15
2019-05-02T01:33:07.846Z,91.52
2019-05-02T01:35:50.841Z,91.09
2019-05-02T01:38:31.801Z,91.10
2019-05-02T01:41:04.033Z,90.47
2019-05-02T01:43:35.708Z,90.75
2019-05-02T01:46:07.160Z,92.00
2019-05-02T01:48:40.023Z,92.60
2019-05-02T01:51:12.135Z,92.19
2019-05-02T01:53:43.526Z,92.30
2019-05-02T01:56:15.213Z,92.36
2019-05-02T01:58:47.080Z,92.56
2019-05-02T02:01:21.391Z,92.46
2019-05-02T02:03:51.837Z,91.44
2019-05-02T02:06:23.317Z,91.11
2019-05-02T02:08:55.067Z,91.19
2019-05-02T02:11:28.499Z,92.12
2019-05-02T02:13:59.559Z,91.92
2019-05-02T02:16:35.228Z,91.66
2019-05-02T02:19:22.182Z,90.82
2019-05-02T02:22:23.644Z,89.09
2019-05-02T02:25:14.301Z,89.68
2019-05-02T02:27:45.517Z,90.59
2019-05-02T02:30:17.892Z,90.86
2019-05-02T02:32:50.376Z,91.83
2019-05-02T02:35:21.791Z,91.73
2019-05-02T02:37:55.712Z,91.66
2019-05-02T02:40:32.785Z,91.97
2019-05-02T02:43:12.791Z,92.09
2019-05-02T02:46:09.505Z,91.97
2019-05-02T02:48:42.671Z,92.46
2019-05-02T02:51:22.165Z,92.28
2019-05-02T02:53:47.389Z,91.93
2019-05-02T02:56:18.882Z,92.09
2019-05-02T02:58:50.163Z,91.92
2019-05-02T03:01:28.723Z,92.57
2019-05-02T03:03:54.902Z,92.80
2019-05-02T03:06:26.491Z,93.02
2019-05-02T03:08:57.917Z,93.20
2019-05-02T03:11:35.124Z,92.92
2019-05-02T03:14:12.723Z,93.13
2019-05-02T03:16:47.117Z,93.59
2019-05-02T03:19:21.089Z,93.12
2019-05-02T03:21:54.251Z,92.91
2019-05-02T03:24:27.984Z,92.81
2019-05-02T03:26:59.396Z,92.74
2019-05-02T03:29:41.129Z,92.85
2019-05-02T03:32:14.997Z,92.70
2019-05-02T03:34:47.547Z,92.73
2019-05-02T03:37:13.854Z,92.52
2019-05-02T03:39:49.546Z,92.84
2019-05-02T03:42:18.058Z,92.64
2019-05-02T03:44:56.989Z,92.19
2019-05-02T03:47:23.039Z,92.50
2019-05-02T03:49:54.478Z,92.85
2019-05-02T03:52:25.982Z,92.53
2019-05-02T03:54:57.583Z,92.71
2019-05-02T03:57:33.387Z,93.77
2019-05-02T04:00:02.844Z,93.76
2019-05-02T04:02:35.329Z,93.72
2019-05-02T04:05:07.018Z,93.95
2019-05-02T04:07:40.843Z,93.96
2019-05-02T04:10:20.182Z,94.25
2019-05-02T04:12:53.238Z,94.18
2019-05-02T04:15:20.589Z,93.36
2019-05-02T04:17:54.678Z,93.55
2019-05-02T04:20:26.294Z,93.43
2019-05-02T04:23:06.794Z,93.48
2019-05-02T04:25:38.418Z,94.04
2019-05-02T04:28:12.055Z,94.13
2019-05-02T04:30:45.132Z,94.17
2019-05-02T04:33:16.159Z,93.90
2019-05-02T04:35:47.595Z,93.93
2019-05-02T04:38:21.421Z,94.13
2019-05-02T04:40:52.409Z,94.24
2019-05-02T04:43:28.592Z,94.11
2019-05-02T04:46:00.132Z,94.49
2019-05-02T04:48:34.551Z,94.75
2019-05-02T04:51:10.285Z,93.36
2019-05-02T04:53:44.360Z,92.91
2019-05-02T04:56:12.489Z,92.36
2019-05-02T04:58:44.300Z,92.56
2019-05-02T05:01:15.664Z,92.87
2019-05-02T05:03:49.263Z,93.05
2019-05-02T05:06:20.170Z,93.50
2019-05-02T05:08:51.691Z,94.18
2019-05-02T05:11:24.959Z,94.26
2019-05-02T05:13:58.992Z,94.60
2019-05-02T05:16:28.855Z,94.35
2019-05-02T05:19:00.224Z,93.90
2019-05-02T05:21:31.535Z,93.67
2019-05-02T05:24:24.875Z,93.29
2019-05-02T05:26:57.818Z,90.87
2019-05-02T05:29:31.164Z,89.36
2019-05-02T05:32:07.855Z,88.21
2019-05-02T05:34:37.990Z,86.07
2019-05-02T05:37:13.434Z,85.18
2019-05-02T05:39:47.940Z,84.57
2019-05-02T05:42:17.815Z,84.63
2019-05-02T05:44:50.560Z,84.80
2019-05-02T05:47:21.739Z,82.64
2019-05-02T05:49:57.590Z,82.99
2019-05-02T05:52:28.269Z,81.95
2019-05-02T05:55:00.115Z,82.21
2019-05-02T05:57:31.420Z,81.90
2019-05-02T06:00:11.938Z,80.75
2019-05-02T06:02:52.349Z,77.83
2019-05-02T06:05:10.707Z,78.72
2019-05-02T06:07:44.947Z,78.34
2019-05-02T06:10:15.386Z,72.74
2019-05-02T06:12:47.249Z,72.00
2019-05-02T06:15:18.797Z,73.93
2019-05-02T06:17:50.065Z,74.73
2019-05-02T06:20:25.758Z,74.75
2019-05-02T06:22:59.549Z,74.41
2019-05-02T06:25:34.160Z,71.53
2019-05-02T06:28:05.319Z,71.65
2019-05-02T06:30:34.319Z,70.49
2019-05-02T06:33:06.705Z,70.42
2019-05-02T06:35:38.542Z,69.58
2019-05-02T06:38:09.838Z,68.61
2019-05-02T06:40:44.713Z,71.60
2019-05-02T06:43:15.453Z,72.01
2019-05-02T06:45:46.951Z,73.14
2019-05-02T06:48:19.112Z,70.47
2019-05-02T06:50:51.012Z,68.79
2019-05-02T06:53:24.013Z,68.08
2019-05-02T06:55:55.718Z,69.21
2019-05-02T06:58:27.110Z,66.82
2019-05-02T07:00:59.172Z,65.69
2019-05-02T07:03:30.821Z,64.05
2019-05-02T07:06:02.916Z,63.61
2019-05-02T07:08:35.739Z,62.07
2019-05-02T07:11:07.499Z,64.86
2019-05-02T07:13:41.877Z,64.74
2019-05-02T07:16:36.883Z,65.46
2019-05-02T07:19:16.254Z,65.02
2019-05-02T07:21:46.436Z,64.35
2019-05-02T07:24:17.797Z,65.12
2019-05-02T07:26:52.182Z,63.94
2019-05-02T07:29:23.152Z,62.07
2019-05-02T07:31:54.712Z,64.15
2019-05-02T07:34:26.129Z,65.20
2019-05-02T07:36:57.871Z,60.11
2019-05-02T07:39:29.545Z,59.67
2019-05-02T07:42:05.866Z,59.04
2019-05-02T07:44:34.549Z,54.41
2019-05-02T07:47:06.068Z,59.62
2019-05-02T07:49:37.916Z,53.23
2019-05-02T07:52:09.351Z,53.25
2019-05-02T07:54:40.707Z,50.57
2019-05-02T07:57:12.786Z,51.98
2019-05-02T07:59:44.187Z,53.48
2019-05-02T08:02:15.658Z,49.65
2019-05-02T08:04:47.294Z,49.66
2019-05-02T08:07:21.124Z,48.98
2019-05-02T08:09:51.997Z,50.60
2019-05-02T08:12:23.405Z,47.68
2019-05-02T08:14:54.672Z,47.29
2019-05-02T08:17:26.184Z,47.52
2019-05-02T08:19:57.917Z,48.88
2019-05-02T08:22:29.221Z,46.53
2019-05-02T08:25:00.881Z,47.89
2019-05-02T08:27:48.458Z,46.26
2019-05-02T08:30:24.865Z,50.31
2019-05-02T08:32:56.396Z,46.83
2019-05-02T08:35:28.351Z,45.73
2019-05-02T08:38:00.244Z,47.26
2019-05-02T08:40:31.902Z,45.52
2019-05-02T08:43:08.625Z,45.17
2019-05-02T08:45:38.126Z,45.73
2019-05-02T08:48:09.720Z,41.95
2019-05-02T08:50:41.316Z,43.31
2019-05-02T08:53:14.271Z,40.14
2019-05-02T08:55:46.743Z,40.67
2019-05-02T08:58:18.509Z,40.35
2019-05-02T09:00:50.054Z,40.85
2019-05-02T09:03:21.554Z,40.62
2019-05-02T09:06:05.364Z,41.69
2019-05-02T09:08:28.854Z,41.22
2019-05-02T09:11:01.511Z,40.59
2019-05-02T09:13:33.144Z,39.51
2019-05-02T09:16:06.026Z,39.49
2019-05-02T09:18:42.384Z,39.76
2019-05-02T09:21:12.560Z,36.82
2019-05-02T09:23:44.397Z,38.44
2019-05-02T09:26:16.493Z,39.01
2019-05-02T09:28:48.668Z,38.34
2019-05-02T09:31:22.632Z,37.82
2019-05-02T09:33:55.687Z,37.05
2019-05-02T09:36:27.156Z,37.44
2019-05-02T09:38:58.551Z,36.88
2019-05-02T09:41:32.486Z,38.85
2019-05-02T09:44:09.006Z,40.04
2019-05-02T09:46:38.918Z,38.57
2019-05-02T09:49:15.763Z,35.97
2019-05-02T09:51:45.586Z,37.49
2019-05-02T09:54:23.034Z,33.88
2019-05-02T09:56:54.535Z,34.52
2019-05-02T09:59:33.122Z,35.24
2019-05-02T10:02:08.536Z,33.81
2019-05-02T10:04:43.494Z,34.17
2019-05-02T10:07:15.533Z,33.10
2019-05-02T10:09:46.987Z,36.24
2019-05-02T10:12:18.502Z,34.46
2019-05-02T10:14:50.161Z,33.58
2019-05-02T10:17:23.186Z,35.27
2019-05-02T10:19:57.109Z,34.58
2019-05-02T10:22:33.721Z,33.61
2019-05-02T10:25:02.563Z,33.09
2019-05-02T10:27:33.975Z,32.75
2019-05-02T10:30:11.763Z,33.01
2019-05-02T10:32:39.802Z,33.36
2019-05-02T10:35:14.768Z,30.91
2019-05-02T10:37:46.195Z,31.91
2019-05-02T10:40:17.700Z,33.13
2019-05-02T10:42:49.006Z,35.89
2019-05-02T10:45:22.408Z,36.57
2019-05-02T10:47:53.635Z,38.15
2019-05-02T10:50:29.435Z,38.04
2019-05-02T10:53:05.367Z,38.12
2019-05-02T10:55:33.874Z,40.37
2019-05-02T10:58:05.891Z,40.14
2019-05-02T11:00:38.978Z,39.64
2019-05-02T11:03:16.297Z,39.99
2019-05-02T11:05:52.862Z,39.74
2019-05-02T11:08:24.781Z,40.25
2019-05-02T11:10:57.408Z,39.63
2019-05-02T11:13:53.359Z,40.22
2019-05-02T11:16:37.115Z,40.11
2019-05-02T11:19:14.657Z,40.52
2019-05-02T11:21:55.337Z,41.06
2019-05-02T11:24:19.306Z,41.66
2019-05-02T11:26:52.684Z,41.64
2019-05-02T11:29:25.310Z,43.00
2019-05-02T11:31:56.759Z,43.16
2019-05-02T11:34:28.632Z,43.32
2019-05-02T11:37:01.747Z,43.38
2019-05-02T11:39:42.337Z,43.63
2019-05-02T11:42:06.923Z,44.51
2019-05-02T11:44:42.207Z,44.96
2019-05-02T11:47:17.316Z,44.25
2019-05-02T11:49:52.087Z,43.58
2019-05-02T11:52:22.556Z,43.39
2019-05-02T11:54:55.536Z,43.37
2019-05-02T11:57:30.699Z,42.63
2019-05-02T12:00:04.937Z,41.94
2019-05-02T12:02:58.246Z,41.27
2019-05-02T12:05:35.851Z,42.26
2019-05-02T12:08:12.201Z,42.47
2019-05-02T12:10:45.373Z,41.71
2019-05-02T12:13:17.210Z,41.87
2019-05-02T12:15:48.476Z,42.86
2019-05-02T12:18:23.158Z,41.12
2019-05-02T12:20:54.020Z,40.61
2019-05-02T12:23:25.304Z,38.94
2019-05-02T12:25:57.350Z,37.21
2019-05-02T12:28:32.358Z,35.93
2019-05-02T12:31:07.979Z,34.61
2019-05-02T12:33:42.530Z,34.57
2019-05-02T12:36:14.398Z,34.04
2019-05-02T12:38:47.034Z,34.03
2019-05-02T12:41:22.332Z,34.63
2019-05-02T12:43:52.477Z,34.90
2019-05-02T12:46:24.176Z,35.11
2019-05-02T12:48:56.099Z,36.45
2019-05-02T12:51:27.538Z,37.36
2019-05-02T12:53:58.989Z,37.91
2019-05-02T12:56:32.358Z,38.44
2019-05-02T12:59:05.364Z,38.42
2019-05-02T13:01:37.276Z,38.60
2019-05-02T13:04:12.456Z,37.17
2019-05-02T13:06:43.681Z,35.43
2019-05-02T13:09:15.096Z,33.87
2019-05-02T13:12:08.371Z,33.41
2019-05-02T13:14:39.739Z,31.24
2019-05-02T13:17:12.143Z,31.18
2019-05-02T13:19:55.803Z,30.05
2019-05-02T13:22:34.586Z,31.45
2019-05-02T13:25:12.934Z,32.17
2019-05-02T13:27:48.184Z,31.72
2019-05-02T13:30:42.872Z,32.17
2019-05-02T13:33:13.715Z,33.38
2019-05-02T13:35:48.609Z,31.80
2019-05-02T13:38:22.939Z,34.69
2019-05-02T13:40:54.662Z,34.33
2019-05-02T13:43:29.648Z,33.43
2019-05-02T13:46:14.711Z,32.50
2019-05-02T13:48:46.249Z,34.27
2019-05-02T13:51:17.588Z,34.31
2019-05-02T13:53:57.931Z,34.93
2019-05-02T13:56:52.796Z,34.25
2019-05-02T13:59:24.475Z,33.97
2019-05-02T14:01:55.978Z,34.21
2019-05-02T14:04:28.498Z,33.26
2019-05-02T14:07:00.233Z,30.79
2019-05-02T14:10:02.306Z,29.59
2019-05-02T14:12:58.128Z,30.76
2019-05-02T14:15:39.017Z,31.58
2019-05-02T14:18:12.420Z,31.94
2019-05-02T14:20:43.940Z,32.73
2019-05-02T14:23:15.295Z,34.10
2019-05-02T14:25:47.381Z,33.64
2019-05-02T14:28:19.015Z,35.28
2019-05-02T14:30:52.367Z,35.32
2019-05-02T14:33:25.267Z,35.49
2019-05-02T14:35:56.944Z,34.39
2019-05-02T14:38:28.292Z,34.57
2019-05-02T14:41:08.450Z,34.31
2019-05-02T14:43:52.581Z,32.41
2019-05-02T14:46:28.839Z,33.95
2019-05-02T14:48:59.216Z,33.05
2019-05-02T14:51:32.688Z,32.56
2019-05-02T14:54:08.210Z,34.96
2019-05-02T14:56:48.148Z,34.51
2019-05-02T14:59:20.223Z,33.95
2019-05-02T15:01:57.899Z,33.97
2019-05-02T15:04:28.382Z,32.00
2019-05-02T15:07:01.912Z,33.35
2019-05-02T15:09:36.109Z,33.49
2019-05-02T15:12:13.935Z,33.12
2019-05-02T15:14:40.029Z,33.22
2019-05-02T15:17:12.180Z,33.07
2019-05-02T15:19:43.772Z,33.06
2019-05-02T15:22:15.135Z,34.31
2019-05-02T15:24:46.342Z,35.63
2019-05-02T15:27:18.289Z,35.73
2019-05-02T15:29:53.938Z,35.57
2019-05-02T15:32:44.963Z,35.93
2019-05-02T15:35:31.775Z,35.94
2019-05-02T15:38:06.732Z,35.96
2019-05-02T15:40:48.123Z,36.95
2019-05-02T15:43:09.931Z,36.85
2019-05-02T15:45:44.150Z,37.26
2019-05-02T15:48:22.660Z,37.45
2019-05-02T15:50:52.122Z,37.30
2019-05-02T15:53:44.669Z,37.35
2019-05-02T15:56:20.013Z,37.53
2019-05-02T15:58:49.650Z,37.44
2019-05-02T16:01:32.166Z,38.02
2019-05-02T16:04:04.992Z,38.22
2019-05-02T16:06:36.405Z,38.02
2019-05-02T16:09:09.494Z,38.36
2019-05-02T16:11:43.462Z,38.23
2019-05-02T16:14:15.130Z,38.44
2019-05-02T16:16:46.409Z,38.04
2019-05-02T16:19:27.186Z,38.75
2019-05-02T16:22:08.955Z,38.73
2019-05-02T16:24:43.875Z,38.80
2019-05-02T16:27:16.415Z,39.28
2019-05-02T16:29:47.249Z,39.75
2019-05-02T16:32:37.889Z,39.36
2019-05-02T16:35:13.535Z,40.00
2019-05-02T16:37:46.698Z,39.67
2019-05-02T16:40:23.830Z,39.98
2019-05-02T16:42:51.854Z,40.01
2019-05-02T16:45:23.884Z,39.73
2019-05-02T16:48:00.328Z,39.76
2019-05-02T16:50:35.109Z,40.12
2019-05-02T16:53:02.403Z,39.12
2019-05-02T16:55:34.078Z,38.53
2019-05-02T16:58:07.273Z,39.24
2019-05-02T17:00:42.566Z,39.06
2019-05-02T17:03:12.729Z,40.11
2019-05-02T17:05:48.000Z,39.94
2019-05-02T17:08:27.423Z,40.65
2019-05-02T17:11:15.806Z,40.71
2019-05-02T17:13:47.292Z,40.94
2019-05-02T17:16:18.608Z,41.46
2019-05-02T17:18:52.977Z,42.13
2019-05-02T17:21:26.858Z,42.74
2019-05-02T17:23:56.550Z,42.58
2019-05-02T17:26:27.899Z,43.01
2019-05-02T17:28:59.261Z,43.31
2019-05-02T17:31:32.257Z,43.88
2019-05-02T17:34:03.672Z,43.86
2019-05-02T17:36:35.150Z,44.37
2019-05-02T17:39:08.664Z,45.33
2019-05-02T17:41:42.260Z,45.81
2019-05-02T17:44:18.513Z,45.93
2019-05-02T17:46:50.769Z,45.90
2019-05-02T17:49:23.918Z,46.36
2019-05-02T17:52:18.624Z,46.11
2019-05-02T17:54:44.460Z,46.38
2019-05-02T17:57:16.133Z,46.88
2019-05-02T17:59:47.680Z,47.19
2019-05-02T18:02:19.391Z,47.08
2019-05-02T18:04:52.143Z,47.40
2019-05-02T18:07:31.125Z,47.82
2019-05-02T18:09:57.177Z,47.97
2019-05-02T18:12:28.602Z,48.36
2019-05-02T18:15:01.407Z,48.20
2019-05-02T18:17:33.741Z,48.56
2019-05-02T18:20:06.740Z,48.11
2019-05-02T18:22:39.901Z,49.65
2019-05-02T18:25:16.269Z,51.56
2019-05-02T18:27:45.468Z,53.70
2019-05-02T18:30:26.717Z,61.54
2019-05-02T18:32:57.911Z,67.04
2019-05-02T18:35:28.434Z,77.36
2019-05-02T18:38:00.172Z,83.66
2019-05-02T18:40:32.144Z,89.89
2019-05-02T18:43:05.332Z,87.04
2019-05-02T18:45:37.001Z,87.24
2019-05-02T18:48:08.536Z,88.55
2019-05-02T18:50:46.946Z,91.04
2019-05-02T18:53:18.685Z,90.35
2019-05-02T18:55:51.887Z,90.87
2019-05-02T18:58:23.694Z,91.02
2019-05-02T19:00:55.353Z,92.62
2019-05-02T19:03:27.385Z,94.28
2019-05-02T19:06:02.143Z,95.82
2019-05-02T19:08:45.790Z,96.09
2019-05-02T19:11:12.628Z,96.17
2019-05-02T19:13:44.559Z,96.47
2019-05-02T19:16:19.267Z,94.77
2019-05-02T19:18:54.489Z,95.91
2019-05-02T19:21:26.435Z,94.82
2019-05-02T19:23:58.557Z,94.91
2019-05-02T19:26:30.202Z,94.88
2019-05-02T19:29:22.136Z,95.76
2019-05-02T19:31:54.862Z,95.78
2019-05-02T19:34:26.970Z,93.97
2019-05-02T19:37:03.091Z,94.18
2019-05-02T19:39:34.270Z,95.58
2019-05-02T19:42:06.448Z,94.40
2019-05-02T19:44:38.396Z,94.72
2019-05-02T19:47:15.703Z,95.13
2019-05-02T19:49:47.246Z,95.07
2019-05-02T19:52:16.182Z,95.88
2019-05-02T19:54:47.710Z,94.94
2019-05-02T19:57:24.753Z,95.06
2019-05-02T19:59:52.505Z,95.54
2019-05-02T20:02:23.995Z,96.16
2019-05-02T20:04:55.589Z,95.43
2019-05-02T20:07:27.185Z,96.08
2019-05-02T20:09:58.580Z,95.49
2019-05-02T20:12:30.105Z,94.38
2019-05-02T20:15:01.988Z,94.09
2019-05-02T20:17:33.187Z,92.91
2019-05-02T20:20:07.798Z,93.86
2019-05-02T20:22:40.973Z,93.96
2019-05-02T20:25:12.579Z,95.52
2019-05-02T20:27:44.350Z,94.01
2019-05-02T20:30:17.262Z,92.11
2019-05-02T20:32:48.539Z,90.49
2019-05-02T20:35:19.992Z,90.10
2019-05-02T20:37:52.569Z,91.44
2019-05-02T20:40:33.221Z,92.43
2019-05-02T20:43:05.587Z,90.49
2019-05-02T20:45:37.020Z,89.85
2019-05-02T20:48:08.513Z,89.49
2019-05-02T20:50:40.062Z,91.27
2019-05-02T20:53:12.831Z,89.81
2019-05-02T20:55:44.849Z,91.34
2019-05-02T20:58:16.216Z,89.01
2019-05-02T21:00:47.886Z,88.02
2019-05-02T21:03:19.175Z,86.89
2019-05-02T21:06:36.474Z,85.86
2019-05-02T21:09:18.656Z,86.58
2019-05-02T21:12:02.071Z,83.94
2019-05-02T21:14:35.720Z,85.60
2019-05-02T21:17:07.381Z,86.16
2019-05-02T21:19:38.730Z,85.27
2019-05-02T21:22:19.301Z,87.37
2019-05-02T21:24:52.694Z,86.39
2019-05-02T21:27:23.947Z,86.21
2019-05-02T21:29:55.412Z,86.09
2019-05-02T21:32:26.877Z,85.97
2019-05-02T21:34:58.374Z,88.45
2019-05-02T21:37:31.846Z,86.62
2019-05-02T21:40:02.995Z,87.42
2019-05-02T21:42:34.406Z,85.73
2019-05-02T21:45:06.222Z,87.42
2019-05-02T21:47:37.764Z,88.16
2019-05-02T21:50:25.104Z,89.97
2019-05-02T21:53:18.317Z,88.33
2019-05-02T21:55:59.654Z,88.42
2019-05-02T21:58:32.373Z,89.69
2019-05-02T22:01:09.838Z,89.34
2019-05-02T22:03:42.305Z,86.10
2019-05-02T22:06:14.752Z,86.70
2019-05-02T22:08:46.765Z,87.64
2019-05-02T22:11:18.152Z,87.72
2019-05-02T22:13:51.672Z,87.29
2019-05-02T22:16:23.043Z,87.10
2019-05-02T22:18:54.699Z,87.72
2019-05-02T22:21:26.394Z,88.17
2019-05-02T22:24:08.251Z,88.35
2019-05-02T22:26:32.741Z,88.81
2019-05-02T22:29:04.445Z,86.99
2019-05-02T22:31:35.982Z,86.60
2019-05-02T22:34:08.228Z,85.39
2019-05-02T22:36:39.606Z,86.46
2019-05-02T22:39:31.714Z,87.88
2019-05-02T22:42:04.697Z,87.32
2019-05-02T22:44:36.565Z,87.61
2019-05-02T22:47:08.934Z,86.70
2019-05-02T22:49:42.287Z,87.94
2019-05-02T22:52:14.394Z,86.42
2019-05-02T22:54:46.012Z,86.61
2019-05-02T22:57:17.423Z,87.54
2019-05-02T22:59:49.025Z,87.84
2019-05-02T23:02:21.977Z,87.71
2019-05-02T23:04:53.616Z,87.96
2019-05-02T23:07:25.625Z,86.66
2019-05-02T23:09:57.277Z,86.69
2019-05-02T23:12:28.625Z,87.12
2019-05-02T23:15:02.008Z,87.88
2019-05-02T23:17:33.679Z,86.72
2019-05-02T23:20:05.950Z,86.71
2019-05-02T23:22:38.117Z,86.79
2019-05-02T23:25:42.560Z,88.19
2019-05-02T23:28:17.798Z,87.20
2019-05-02T23:30:49.560Z,86.51
2019-05-02T23:33:23.395Z,88.01
2019-05-02T23:35:54.149Z,87.33
2019-05-02T23:38:25.878Z,86.80
2019-05-02T23:40:57.871Z,87.61
2019-05-02T23:43:29.293Z,86.61
2019-05-02T23:46:02.291Z,87.37
2019-05-02T23:48:33.660Z,88.34
2019-05-02T23:51:05.091Z,87.27
2019-05-02T23:53:36.483Z,87.28
2019-05-02T23:56:08.031Z,87.69
2019-05-02T23:58:39.488Z,88.46
